createdAt,value
2023-02-22T00:01:19.232Z,8.53
2023-02-22T00:03:52.096Z,8.48
2023-02-22T00:06:25.008Z,8.42
2023-02-22T00:08:55.793Z,8.37
2023-02-22T00:11:24.939Z,8.32
2023-02-22T00:13:57.398Z,8.33
2023-02-22T00:16:28.554Z,8.27
2023-02-22T00:18:57.309Z,8.18
2023-02-22T00:21:25.892Z,8.07
2023-02-22T00:23:55.481Z,7.95
2023-02-22T00:26:24.457Z,7.92
2023-02-22T00:28:54.407Z,7.96
2023-02-22T00:31:23.736Z,7.98
2023-02-22T00:33:53.815Z,7.92
2023-02-22T00:36:22.616Z,7.93
2023-02-22T00:38:51.246Z,7.84
2023-02-22T00:41:20.060Z,7.75
2023-02-22T00:43:49.472Z,7.69
2023-02-22T00:46:18.293Z,7.62
2023-02-22T00:48:47.496Z,7.57
2023-02-22T00:51:17.759Z,7.53
2023-02-22T00:53:46.500Z,7.53
2023-02-22T00:56:15.198Z,7.51
2023-02-22T00:58:44.595Z,7.48
2023-02-22T01:01:13.370Z,7.44
2023-02-22T01:03:42.130Z,7.42
2023-02-22T01:06:11.062Z,7.38
2023-02-22T01:08:44.585Z,7.38
2023-02-22T01:11:13.594Z,7.34
2023-02-22T01:13:45.253Z,7.31
2023-02-22T01:16:13.991Z,7.29
2023-02-22T01:18:42.887Z,7.27
2023-02-22T01:21:11.983Z,7.29
2023-02-22T01:23:46.308Z,7.25
2023-02-22T01:26:15.107Z,7.23
2023-02-22T01:28:43.710Z,7.16
2023-02-22T01:31:12.533Z,7.11
2023-02-22T01:33:42.435Z,7.08
2023-02-22T01:36:11.419Z,7.00
2023-02-22T01:38:40.325Z,6.99
2023-02-22T01:41:10.474Z,6.95
2023-02-22T01:43:39.254Z,6.80
2023-02-22T01:46:18.157Z,6.75
2023-02-22T01:48:49.066Z,6.74
2023-02-22T01:51:20.794Z,6.73
2023-02-22T01:53:52.829Z,6.74
2023-02-22T01:56:24.426Z,6.72
2023-02-22T01:58:56.400Z,6.74
2023-02-22T02:01:26.334Z,6.69
2023-02-22T02:03:58.610Z,6.63
2023-02-22T02:06:27.537Z,6.60
2023-02-22T02:09:00.959Z,6.60
2023-02-22T02:11:33.094Z,6.58
2023-02-22T02:14:01.949Z,6.58
2023-02-22T02:16:39.260Z,6.56
2023-02-22T02:19:11.755Z,6.52
2023-02-22T02:22:09.313Z,6.45
2023-02-22T02:24:59.172Z,6.42
2023-02-22T02:27:35.073Z,6.41
2023-02-22T02:30:26.485Z,6.40
2023-02-22T02:32:58.880Z,6.38
2023-02-22T02:35:35.415Z,6.34
2023-02-22T02:38:11.656Z,6.32
2023-02-22T02:40:47.468Z,6.31
2023-02-22T02:43:19.107Z,6.27
2023-02-22T02:45:50.951Z,6.22
2023-02-22T02:48:24.849Z,6.19
2023-02-22T02:50:54.651Z,6.16
2023-02-22T02:53:26.466Z,6.12
2023-02-22T02:55:55.293Z,6.02
2023-02-22T02:58:24.785Z,5.97
2023-02-22T03:00:58.453Z,5.95
2023-02-22T03:03:47.744Z,5.98
2023-02-22T03:06:49.154Z,5.95
2023-02-22T03:09:25.794Z,5.90
2023-02-22T03:12:02.093Z,5.92
2023-02-22T03:14:38.880Z,5.93
2023-02-22T03:17:16.129Z,5.92
2023-02-22T03:19:48.994Z,5.90
2023-02-22T03:22:23.708Z,5.86
2023-02-22T03:24:58.891Z,5.85
2023-02-22T03:27:29.932Z,5.76
2023-02-22T03:30:04.722Z,5.63
2023-02-22T03:32:38.006Z,5.62
2023-02-22T03:35:10.957Z,5.59
2023-02-22T03:37:43.028Z,5.62
2023-02-22T03:40:15.370Z,5.57
2023-02-22T03:42:50.016Z,5.61
2023-02-22T03:45:21.239Z,5.62
2023-02-22T03:47:53.042Z,5.64
2023-02-22T03:50:26.648Z,5.55
2023-02-22T03:52:55.466Z,5.56
2023-02-22T03:55:29.080Z,5.54
2023-02-22T03:58:00.530Z,5.50
2023-02-22T04:00:33.780Z,5.47
2023-02-22T04:03:03.678Z,5.39
2023-02-22T04:05:33.858Z,5.39
2023-02-22T04:08:03.424Z,5.40
2023-02-22T04:10:33.524Z,5.43
2023-02-22T04:13:02.183Z,5.43
2023-02-22T04:15:31.430Z,5.38
2023-02-22T04:18:05.764Z,5.40
2023-02-22T04:20:36.081Z,5.36
2023-02-22T04:23:10.991Z,5.29
2023-02-22T04:25:41.786Z,5.31
2023-02-22T04:28:13.729Z,5.33
2023-02-22T04:30:47.244Z,5.30
2023-02-22T04:33:18.336Z,5.25
2023-02-22T04:35:49.269Z,5.20
2023-02-22T04:38:18.448Z,5.14
2023-02-22T04:40:47.100Z,5.10
2023-02-22T04:43:16.596Z,5.11
2023-02-22T04:45:45.297Z,5.10
2023-02-22T04:48:13.919Z,5.03
2023-02-22T04:50:42.724Z,5.02
2023-02-22T04:53:12.605Z,5.01
2023-02-22T04:55:41.255Z,5.02
2023-02-22T04:58:10.505Z,5.08
2023-02-22T05:00:39.699Z,5.12
2023-02-22T05:03:09.738Z,5.17
2023-02-22T05:05:38.289Z,5.23
2023-02-22T05:08:07.631Z,5.21
2023-02-22T05:10:37.569Z,5.12
2023-02-22T05:13:06.475Z,5.04
2023-02-22T05:15:35.003Z,5.02
2023-02-22T05:18:03.830Z,5.10
2023-02-22T05:20:35.200Z,5.07
2023-02-22T05:23:05.472Z,5.12
2023-02-22T05:25:36.305Z,5.14
2023-02-22T05:28:07.096Z,5.10
2023-02-22T05:30:39.672Z,5.05
2023-02-22T05:33:08.581Z,5.07
2023-02-22T05:35:38.068Z,5.09
2023-02-22T05:38:06.785Z,5.06
2023-02-22T05:40:36.756Z,5.04
2023-02-22T05:43:05.545Z,5.01
2023-02-22T05:45:34.229Z,4.98
2023-02-22T05:48:03.147Z,4.96
2023-02-22T05:50:33.060Z,4.92
2023-02-22T05:53:02.112Z,4.90
2023-02-22T05:55:30.752Z,4.84
2023-02-22T05:58:01.646Z,4.88
2023-02-22T06:00:31.711Z,4.83
2023-02-22T06:03:01.880Z,4.74
2023-02-22T06:05:31.089Z,4.72
2023-02-22T06:08:00.141Z,4.68
2023-02-22T06:10:29.293Z,4.69
2023-02-22T06:12:58.319Z,4.73
2023-02-22T06:15:29.220Z,4.74
2023-02-22T06:18:00.093Z,4.70
2023-02-22T06:20:30.062Z,4.70
2023-02-22T06:22:59.539Z,4.74
2023-02-22T06:25:31.182Z,4.71
2023-02-22T06:28:00.262Z,4.72
2023-02-22T06:30:30.942Z,4.73
2023-02-22T06:32:59.656Z,4.71
2023-02-22T06:35:28.329Z,4.72
2023-02-22T06:37:56.983Z,4.74
2023-02-22T06:40:29.369Z,4.77
2023-02-22T06:42:58.346Z,4.82
2023-02-22T06:45:27.266Z,4.82
2023-02-22T06:47:57.177Z,4.85
2023-02-22T06:50:28.781Z,4.86
2023-02-22T06:52:57.803Z,4.91
2023-02-22T06:55:28.592Z,4.90
2023-02-22T06:57:57.351Z,4.95
2023-02-22T07:00:27.238Z,4.90
2023-02-22T07:02:57.965Z,4.90
2023-02-22T07:05:27.871Z,4.89
2023-02-22T07:08:02.606Z,4.82
2023-02-22T07:10:33.397Z,4.81
2023-02-22T07:13:02.069Z,4.85
2023-02-22T07:15:33.625Z,4.83
2023-02-22T07:18:03.666Z,4.86
2023-02-22T07:20:32.851Z,4.84
2023-02-22T07:23:02.050Z,4.88
2023-02-22T07:25:30.791Z,4.84
2023-02-22T07:27:59.695Z,4.82
2023-02-22T07:30:31.231Z,4.83
2023-02-22T07:33:02.235Z,4.84
2023-02-22T07:35:32.305Z,4.87
2023-02-22T07:38:01.327Z,4.87
2023-02-22T07:40:30.575Z,4.89
2023-02-22T07:43:00.749Z,4.92
2023-02-22T07:45:30.659Z,4.93
2023-02-22T07:48:00.168Z,4.94
2023-02-22T07:50:32.196Z,4.95
2023-02-22T07:53:03.024Z,4.98
2023-02-22T07:55:32.947Z,5.00
2023-02-22T07:58:02.966Z,5.02
2023-02-22T08:00:33.362Z,5.06
2023-02-22T08:03:02.870Z,5.11
2023-02-22T08:05:34.412Z,5.15
2023-02-22T08:08:03.274Z,5.16
2023-02-22T08:10:32.100Z,5.15
2023-02-22T08:13:00.905Z,5.18
2023-02-22T08:15:31.951Z,5.21
2023-02-22T08:18:01.169Z,5.25
2023-02-22T08:20:32.626Z,5.30
2023-02-22T08:23:01.245Z,5.33
2023-02-22T08:25:31.545Z,5.38
2023-02-22T08:28:01.775Z,5.44
2023-02-22T08:30:31.767Z,5.49
2023-02-22T08:33:02.720Z,5.54
2023-02-22T08:35:33.683Z,5.61
2023-02-22T08:38:05.244Z,5.69
2023-02-22T08:40:35.526Z,5.77
2023-02-22T08:43:05.156Z,5.84
2023-02-22T08:45:33.888Z,5.93
2023-02-22T08:48:02.631Z,6.01
2023-02-22T08:50:34.078Z,6.13
2023-02-22T08:53:04.058Z,6.22
2023-02-22T08:55:33.881Z,6.26
2023-02-22T08:58:03.800Z,6.32
2023-02-22T09:00:33.887Z,6.36
2023-02-22T09:03:02.987Z,6.39
2023-02-22T09:05:32.198Z,6.42
2023-02-22T09:08:02.537Z,6.50
2023-02-22T09:10:34.730Z,6.57
2023-02-22T09:13:04.055Z,6.70
2023-02-22T09:15:34.029Z,6.70
2023-02-22T09:18:02.891Z,6.78
2023-02-22T09:20:31.807Z,6.83
2023-02-22T09:23:02.976Z,6.81
2023-02-22T09:25:31.777Z,6.88
2023-02-22T09:28:00.503Z,6.95
2023-02-22T09:30:32.367Z,6.97
2023-02-22T09:33:03.311Z,7.02
2023-02-22T09:35:36.146Z,7.08
2023-02-22T09:38:07.412Z,7.18
2023-02-22T09:40:44.753Z,7.34
2023-02-22T09:43:35.775Z,7.53
2023-02-22T09:46:20.537Z,7.53
2023-02-22T09:49:07.724Z,7.50
2023-02-22T09:51:41.269Z,7.63
2023-02-22T09:54:19.376Z,7.66
2023-02-22T09:56:49.917Z,7.70
2023-02-22T09:59:23.705Z,7.79
2023-02-22T10:01:59.269Z,7.82
2023-02-22T10:04:35.616Z,7.85
2023-02-22T10:07:11.340Z,7.91
2023-02-22T10:09:43.596Z,7.95
2023-02-22T10:12:15.427Z,8.06
2023-02-22T10:15:27.928Z,8.21
2023-02-22T10:18:03.387Z,8.29
2023-02-22T10:20:44.118Z,8.40
2023-02-22T10:23:19.868Z,8.50
2023-02-22T10:25:53.792Z,8.58
2023-02-22T10:28:25.270Z,8.67
2023-02-22T10:30:59.042Z,8.81
2023-02-22T10:33:32.163Z,8.92
2023-02-22T10:36:01.158Z,8.95
2023-02-22T10:38:34.576Z,9.11
2023-02-22T10:41:20.372Z,9.13
2023-02-22T10:43:48.996Z,9.19
2023-02-22T10:46:21.569Z,9.27
2023-02-22T10:48:52.826Z,9.33
2023-02-22T10:51:21.636Z,9.43
2023-02-22T10:53:59.841Z,9.52
2023-02-22T10:56:30.397Z,9.60
2023-02-22T10:59:02.373Z,9.65
2023-02-22T11:01:37.646Z,9.81
2023-02-22T11:04:12.300Z,9.86
2023-02-22T11:06:42.522Z,9.98
2023-02-22T11:09:14.154Z,9.99
2023-02-22T11:11:46.272Z,10.10
2023-02-22T11:14:26.009Z,10.22
2023-02-22T11:17:01.356Z,10.20
2023-02-22T11:19:31.267Z,10.21
2023-02-22T11:22:10.284Z,10.33
2023-02-22T11:24:49.283Z,10.47
2023-02-22T11:27:32.365Z,10.45
2023-02-22T11:30:20.617Z,10.49
2023-02-22T11:32:51.022Z,10.60
2023-02-22T11:35:40.860Z,10.73
2023-02-22T11:38:28.352Z,10.78
2023-02-22T11:41:11.173Z,10.88
2023-02-22T11:43:41.740Z,11.08
2023-02-22T11:46:14.878Z,11.16
2023-02-22T11:48:48.510Z,11.33
2023-02-22T11:51:22.353Z,11.56
2023-02-22T11:54:13.287Z,11.68
2023-02-22T11:56:46.265Z,11.76
2023-02-22T11:59:26.453Z,11.85
2023-02-22T12:01:59.953Z,12.09
2023-02-22T12:04:56.282Z,12.31
2023-02-22T12:07:42.203Z,12.42
2023-02-22T12:10:21.046Z,12.41
2023-02-22T12:13:01.741Z,12.57
2023-02-22T12:15:35.981Z,12.73
2023-02-22T12:18:10.093Z,12.92
2023-02-22T12:20:40.907Z,13.11
2023-02-22T12:23:19.558Z,13.38
2023-02-22T12:25:58.632Z,13.42
2023-02-22T12:28:34.781Z,13.73
2023-02-22T12:31:13.166Z,13.84
2023-02-22T12:33:50.527Z,13.95
2023-02-22T12:36:22.009Z,13.94
2023-02-22T12:38:54.180Z,13.89
2023-02-22T12:41:28.918Z,13.76
2023-02-22T12:43:58.711Z,13.81
2023-02-22T12:46:31.973Z,13.86
2023-02-22T12:49:15.859Z,13.93
2023-02-22T12:51:49.642Z,14.08
2023-02-22T12:54:23.495Z,14.19
2023-02-22T12:56:55.806Z,14.27
2023-02-22T12:59:31.042Z,14.24
2023-02-22T13:02:06.268Z,14.39
2023-02-22T13:04:36.949Z,14.46
2023-02-22T13:07:15.371Z,14.37
2023-02-22T13:10:09.659Z,14.49
2023-02-22T13:12:42.281Z,14.75
2023-02-22T13:15:18.552Z,14.95
2023-02-22T13:17:55.396Z,15.05
2023-02-22T13:20:27.964Z,15.15
2023-02-22T13:23:02.631Z,15.20
2023-02-22T13:25:38.160Z,15.30
2023-02-22T13:28:23.251Z,15.40
2023-02-22T13:30:56.370Z,15.58
2023-02-22T13:33:39.617Z,15.78
2023-02-22T13:36:23.736Z,16.10
2023-02-22T13:39:32.958Z,16.44
2023-02-22T13:42:27.131Z,16.79
2023-02-22T13:45:28.696Z,16.95
2023-02-22T13:48:18.368Z,17.11
2023-02-22T13:51:04.899Z,17.05
2023-02-22T13:53:43.652Z,17.23
2023-02-22T13:56:12.746Z,17.44
2023-02-22T13:58:54.975Z,17.57
2023-02-22T14:01:45.651Z,17.71
2023-02-22T14:04:45.822Z,17.83
2023-02-22T14:07:57.143Z,17.83
2023-02-22T14:10:50.120Z,17.64
2023-02-22T14:13:20.001Z,17.42
2023-02-22T14:16:20.115Z,17.22
2023-02-22T14:18:51.132Z,16.94
2023-02-22T14:21:21.535Z,16.80
2023-02-22T14:23:51.329Z,16.61
2023-02-22T14:26:28.930Z,16.58
2023-02-22T14:28:59.853Z,16.59
2023-02-22T14:31:36.432Z,16.58
2023-02-22T14:34:10.890Z,16.53
2023-02-22T14:36:52.691Z,16.44
2023-02-22T14:39:25.464Z,16.48
2023-02-22T14:42:01.433Z,16.31
2023-02-22T14:44:35.899Z,16.29
2023-02-22T14:47:08.193Z,16.17
2023-02-22T14:49:46.100Z,16.22
2023-02-22T14:52:22.754Z,16.24
2023-02-22T14:54:59.847Z,16.15
2023-02-22T14:57:38.847Z,16.17
2023-02-22T15:00:21.054Z,16.03
2023-02-22T15:02:52.244Z,15.93
2023-02-22T15:05:21.741Z,15.94
2023-02-22T15:07:55.675Z,15.92
2023-02-22T15:10:29.701Z,15.83
2023-02-22T15:13:10.495Z,15.81
2023-02-22T15:15:47.502Z,15.82
2023-02-22T15:18:23.483Z,15.75
2023-02-22T15:20:56.223Z,15.64
2023-02-22T15:23:33.220Z,15.57
2023-02-22T15:26:02.661Z,15.54
2023-02-22T15:28:32.926Z,15.49
2023-02-22T15:31:25.689Z,15.43
2023-02-22T15:33:55.417Z,15.37
2023-02-22T15:36:27.997Z,15.39
2023-02-22T15:38:57.080Z,15.35
2023-02-22T15:41:30.058Z,15.21
2023-02-22T15:44:08.024Z,15.16
2023-02-22T15:46:42.827Z,15.11
2023-02-22T15:49:24.142Z,15.05
2023-02-22T15:52:04.065Z,15.00
2023-02-22T15:54:40.019Z,14.96
2023-02-22T15:57:09.367Z,15.05
2023-02-22T15:59:45.479Z,15.01
2023-02-22T16:02:33.406Z,14.95
2023-02-22T16:05:05.173Z,14.96
2023-02-22T16:07:34.321Z,14.90
2023-02-22T16:10:09.064Z,14.84
2023-02-22T16:12:37.748Z,14.73
2023-02-22T16:15:17.631Z,14.74
2023-02-22T16:18:00.914Z,14.71
2023-02-22T16:20:36.267Z,14.73
2023-02-22T16:23:23.085Z,14.63
2023-02-22T16:26:07.404Z,14.59
2023-02-22T16:28:36.175Z,14.51
2023-02-22T16:31:06.338Z,14.49
2023-02-22T16:33:35.083Z,14.40
2023-02-22T16:36:08.503Z,14.34
2023-02-22T16:38:39.208Z,14.28
2023-02-22T16:41:08.634Z,14.25
2023-02-22T16:43:37.619Z,14.22
2023-02-22T16:46:08.625Z,14.15
2023-02-22T16:48:38.546Z,14.11
2023-02-22T16:51:18.324Z,14.08
2023-02-22T16:53:47.155Z,14.05
2023-02-22T16:56:17.874Z,13.99
2023-02-22T16:58:47.663Z,13.92
2023-02-22T17:01:18.285Z,13.87
2023-02-22T17:03:47.884Z,13.83
2023-02-22T17:06:17.270Z,13.83
2023-02-22T17:08:46.354Z,13.79
2023-02-22T17:11:16.680Z,13.74
2023-02-22T17:13:47.190Z,13.69
2023-02-22T17:16:17.694Z,13.63
2023-02-22T17:18:46.841Z,13.61
2023-02-22T17:21:16.657Z,13.58
2023-02-22T17:23:46.229Z,13.52
2023-02-22T17:26:16.875Z,13.50
2023-02-22T17:28:46.023Z,13.49
2023-02-22T17:31:22.499Z,13.42
2023-02-22T17:33:52.366Z,13.37
2023-02-22T17:36:23.566Z,13.33
2023-02-22T17:38:52.373Z,13.32
2023-02-22T17:41:20.951Z,13.45
2023-02-22T17:43:50.628Z,13.38
2023-02-22T17:46:21.003Z,13.33
2023-02-22T17:48:49.775Z,13.20
2023-02-22T17:51:18.418Z,13.13
2023-02-22T17:53:47.057Z,13.01
2023-02-22T17:56:18.705Z,12.94
2023-02-22T17:58:49.556Z,12.93
2023-02-22T18:01:27.105Z,12.85
2023-02-22T18:03:57.406Z,12.83
2023-02-22T18:06:28.457Z,12.81
2023-02-22T18:08:58.346Z,12.76
2023-02-22T18:11:28.547Z,12.80
2023-02-22T18:13:58.119Z,12.74
2023-02-22T18:16:28.244Z,12.65
2023-02-22T18:18:58.088Z,12.61
2023-02-22T18:21:27.430Z,12.60
2023-02-22T18:23:56.171Z,12.62
2023-02-22T18:26:26.009Z,12.52
2023-02-22T18:28:55.077Z,12.46
2023-02-22T18:31:24.840Z,12.41
2023-02-22T18:33:54.884Z,12.34
2023-02-22T18:36:24.379Z,12.33
2023-02-22T18:38:54.180Z,12.24
2023-02-22T18:41:26.264Z,12.29
2023-02-22T18:43:57.529Z,12.27
2023-02-22T18:46:26.398Z,12.19
2023-02-22T18:48:57.286Z,12.19
2023-02-22T18:51:30.530Z,12.20
2023-02-22T18:54:01.127Z,12.17
2023-02-22T18:56:30.983Z,12.13
2023-02-22T18:59:01.792Z,12.08
2023-02-22T19:01:31.384Z,12.03
2023-02-22T19:04:02.252Z,11.98
2023-02-22T19:06:31.003Z,11.99
2023-02-22T19:09:02.014Z,12.01
2023-02-22T19:11:31.338Z,11.96
2023-02-22T19:14:00.259Z,11.94
2023-02-22T19:16:29.323Z,11.93
2023-02-22T19:18:59.978Z,11.74
2023-02-22T19:21:30.219Z,11.64
2023-02-22T19:24:05.441Z,11.67
2023-02-22T19:26:34.361Z,11.63
2023-02-22T19:29:06.281Z,11.63
2023-02-22T19:31:35.433Z,11.63
2023-02-22T19:34:09.061Z,11.64
2023-02-22T19:36:39.365Z,11.62
2023-02-22T19:39:08.106Z,11.62
2023-02-22T19:41:36.813Z,11.57
2023-02-22T19:44:06.044Z,11.55
2023-02-22T19:46:35.330Z,11.49
2023-02-22T19:49:06.063Z,11.54
2023-02-22T19:51:34.850Z,11.54
2023-02-22T19:54:05.182Z,11.62
2023-02-22T19:56:35.490Z,11.61
2023-02-22T19:59:09.400Z,11.60
2023-02-22T20:01:38.844Z,11.58
2023-02-22T20:04:11.679Z,11.54
2023-02-22T20:06:42.666Z,11.52
2023-02-22T20:09:15.905Z,11.54
2023-02-22T20:11:44.843Z,11.54
2023-02-22T20:14:18.395Z,11.46
2023-02-22T20:16:47.666Z,11.42
2023-02-22T20:19:18.044Z,11.40
2023-02-22T20:21:46.976Z,11.43
2023-02-22T20:24:20.199Z,11.43
2023-02-22T20:26:49.853Z,11.38
2023-02-22T20:29:19.265Z,11.36
2023-02-22T20:31:52.488Z,11.30
2023-02-22T20:34:25.107Z,11.24
2023-02-22T20:36:55.185Z,11.19
2023-02-22T20:39:23.864Z,11.17
2023-02-22T20:41:52.659Z,11.16
2023-02-22T20:44:23.605Z,11.15
2023-02-22T20:46:52.271Z,11.19
2023-02-22T20:49:22.492Z,11.17
2023-02-22T20:51:51.095Z,11.18
2023-02-22T20:54:19.899Z,11.14
2023-02-22T20:56:50.692Z,11.08
2023-02-22T20:59:21.389Z,11.05
2023-02-22T21:01:53.008Z,10.98
2023-02-22T21:04:23.390Z,10.93
2023-02-22T21:06:52.976Z,10.87
2023-02-22T21:09:22.860Z,10.82
2023-02-22T21:11:51.543Z,10.80
2023-02-22T21:14:20.354Z,10.80
2023-02-22T21:16:50.923Z,10.77
2023-02-22T21:19:25.418Z,10.75
2023-02-22T21:21:57.938Z,10.75
2023-02-22T21:24:27.736Z,10.69
2023-02-22T21:26:58.560Z,10.71
2023-02-22T21:29:27.444Z,10.69
2023-02-22T21:31:56.442Z,10.70
2023-02-22T21:34:26.211Z,10.64
2023-02-22T21:36:56.945Z,10.62
2023-02-22T21:39:28.593Z,10.60
2023-02-22T21:42:00.405Z,10.57
2023-02-22T21:44:30.528Z,10.50
2023-02-22T21:46:59.215Z,10.46
2023-02-22T21:49:28.913Z,10.44
2023-02-22T21:51:58.941Z,10.42
2023-02-22T21:54:28.780Z,10.45
2023-02-22T21:56:57.396Z,10.40
2023-02-22T21:59:26.013Z,10.36
2023-02-22T22:01:56.665Z,10.31
2023-02-22T22:04:27.991Z,10.17
2023-02-22T22:07:00.118Z,10.05
2023-02-22T22:09:33.150Z,10.00
2023-02-22T22:12:04.966Z,9.99
2023-02-22T22:14:34.398Z,9.93
2023-02-22T22:17:05.453Z,9.90
2023-02-22T22:19:39.381Z,9.92
2023-02-22T22:22:10.752Z,9.95
2023-02-22T22:24:41.705Z,9.92
2023-02-22T22:27:12.774Z,9.88
2023-02-22T22:29:43.402Z,9.91
2023-02-22T22:32:12.349Z,9.91
2023-02-22T22:34:42.521Z,9.91
2023-02-22T22:37:13.271Z,9.92
2023-02-22T22:39:42.495Z,9.91
2023-02-22T22:42:11.255Z,9.86
2023-02-22T22:44:41.948Z,9.80
2023-02-22T22:47:13.668Z,9.77
2023-02-22T22:49:42.711Z,9.76
2023-02-22T22:52:14.467Z,9.75
2023-02-22T22:54:44.473Z,9.73
2023-02-22T22:57:13.395Z,9.71
2023-02-22T22:59:41.991Z,9.69
2023-02-22T23:02:11.397Z,9.66
2023-02-22T23:04:40.190Z,9.64
2023-02-22T23:07:09.057Z,9.58
2023-02-22T23:09:39.516Z,9.57
2023-02-22T23:12:16.622Z,9.50
2023-02-22T23:14:47.116Z,9.49
2023-02-22T23:17:30.844Z,9.46
2023-02-22T23:19:59.661Z,9.36
2023-02-22T23:22:28.960Z,9.31
2023-02-22T23:25:00.953Z,9.23
2023-02-22T23:27:30.587Z,9.21
2023-02-22T23:29:59.256Z,9.13
2023-02-22T23:32:28.222Z,9.11
2023-02-22T23:34:56.894Z,9.11
2023-02-22T23:37:25.626Z,9.12
2023-02-22T23:39:54.299Z,9.15
2023-02-22T23:42:24.306Z,9.20
2023-02-22T23:44:53.700Z,9.24
2023-02-22T23:47:22.335Z,9.26
2023-02-22T23:49:50.962Z,9.27
2023-02-22T23:52:23.860Z,9.29
2023-02-22T23:54:53.879Z,9.31
2023-02-22T23:57:25.932Z,9.31
2023-02-22T23:59:54.650Z,9.30
